sensor_id;sensor_type;location;lat;lon;timestamp;P1;durP1;ratioP1;P2;durP2;ratioP2
34567;SDS011;20806;50.746;7.116;2022-12-10T00:01:46;4.45;;;3.60;;
34567;SDS011;20806;50.746;7.116;2022-12-10T00:04:13;4.22;;;3.38;;
34567;SDS011;20806;50.746;7.116;2022-12-10T00:06:39;4.88;;;3.70;;
34567;SDS011;20806;50.746;7.116;2022-12-10T00:09:07;5.22;;;3.92;;
34567;SDS011;20806;50.746;7.116;2022-12-10T00:11:33;4.03;;;3.73;;
34567;SDS011;20806;50.746;7.116;2022-12-10T00:13:59;4.00;;;3.60;;
34567;SDS011;20806;50.746;7.116;2022-12-10T00:16:26;5.13;;;3.92;;
34567;SDS011;20806;50.746;7.116;2022-12-10T00:18:53;3.83;;;3.40;;
34567;SDS011;20806;50.746;7.116;2022-12-10T00:21:20;5.40;;;3.70;;
34567;SDS011;20806;50.746;7.116;2022-12-10T00:23:47;3.80;;;3.50;;
34567;SDS011;20806;50.746;7.116;2022-12-10T00:26:14;4.55;;;3.80;;
34567;SDS011;20806;50.746;7.116;2022-12-10T00:28:41;4.03;;;3.50;;
34567;SDS011;20806;50.746;7.116;2022-12-10T00:31:08;4.22;;;3.70;;
34567;SDS011;20806;50.746;7.116;2022-12-10T00:33:35;4.43;;;3.95;;
34567;SDS011;20806;50.746;7.116;2022-12-10T00:36:04;5.75;;;4.25;;
34567;SDS011;20806;50.746;7.116;2022-12-10T00:38:31;5.50;;;4.28;;
34567;SDS011;20806;50.746;7.116;2022-12-10T00:40:57;5.53;;;4.28;;
34567;SDS011;20806;50.746;7.116;2022-12-10T00:43:23;4.97;;;3.90;;
34567;SDS011;20806;50.746;7.116;2022-12-10T00:45:49;5.80;;;4.13;;
34567;SDS011;20806;50.746;7.116;2022-12-10T00:48:15;5.27;;;4.30;;
34567;SDS011;20806;50.746;7.116;2022-12-10T00:50:41;5.05;;;4.20;;
34567;SDS011;20806;50.746;7.116;2022-12-10T00:53:07;4.93;;;3.95;;
34567;SDS011;20806;50.746;7.116;2022-12-10T00:55:33;5.47;;;4.40;;
34567;SDS011;20806;50.746;7.116;2022-12-10T00:57:59;4.50;;;3.80;;
34567;SDS011;20806;50.746;7.116;2022-12-10T01:00:25;5.23;;;4.03;;
34567;SDS011;20806;50.746;7.116;2022-12-10T01:02:53;4.68;;;4.05;;
34567;SDS011;20806;50.746;7.116;2022-12-10T01:05:19;4.63;;;3.92;;
34567;SDS011;20806;50.746;7.116;2022-12-10T01:07:45;4.88;;;3.90;;
34567;SDS011;20806;50.746;7.116;2022-12-10T01:10:11;5.60;;;4.20;;
34567;SDS011;20806;50.746;7.116;2022-12-10T01:12:37;5.35;;;4.32;;
34567;SDS011;20806;50.746;7.116;2022-12-10T01:15:03;4.97;;;4.30;;
34567;SDS011;20806;50.746;7.116;2022-12-10T01:17:29;5.38;;;4.40;;
34567;SDS011;20806;50.746;7.116;2022-12-10T01:19:55;5.13;;;4.03;;
34567;SDS011;20806;50.746;7.116;2022-12-10T01:22:21;4.80;;;4.30;;
34567;SDS011;20806;50.746;7.116;2022-12-10T01:24:47;5.32;;;4.10;;
34567;SDS011;20806;50.746;7.116;2022-12-10T01:27:13;5.72;;;4.22;;
34567;SDS011;20806;50.746;7.116;2022-12-10T01:29:39;4.80;;;4.05;;
34567;SDS011;20806;50.746;7.116;2022-12-10T01:32:05;5.07;;;3.95;;
34567;SDS011;20806;50.746;7.116;2022-12-10T01:34:31;4.97;;;3.70;;
34567;SDS011;20806;50.746;7.116;2022-12-10T01:36:57;5.03;;;4.03;;
34567;SDS011;20806;50.746;7.116;2022-12-10T01:39:23;4.63;;;3.83;;
34567;SDS011;20806;50.746;7.116;2022-12-10T01:41:54;5.53;;;4.07;;
34567;SDS011;20806;50.746;7.116;2022-12-10T01:46:47;5.80;;;4.00;;
34567;SDS011;20806;50.746;7.116;2022-12-10T01:49:14;5.28;;;4.05;;
34567;SDS011;20806;50.746;7.116;2022-12-10T01:51:41;5.10;;;3.90;;
34567;SDS011;20806;50.746;7.116;2022-12-10T01:54:10;4.85;;;4.00;;
34567;SDS011;20806;50.746;7.116;2022-12-10T01:56:37;5.90;;;4.50;;
34567;SDS011;20806;50.746;7.116;2022-12-10T01:59:04;6.03;;;4.65;;
34567;SDS011;20806;50.746;7.116;2022-12-10T02:01:39;6.43;;;4.72;;
34567;SDS011;20806;50.746;7.116;2022-12-10T02:07:09;5.83;;;4.40;;
34567;SDS011;20806;50.746;7.116;2022-12-10T02:12:29;5.85;;;4.75;;
34567;SDS011;20806;50.746;7.116;2022-12-10T02:14:59;7.00;;;4.90;;
34567;SDS011;20806;50.746;7.116;2022-12-10T02:17:49;5.63;;;4.57;;
34567;SDS011;20806;50.746;7.116;2022-12-10T02:20:19;4.72;;;4.10;;
34567;SDS011;20806;50.746;7.116;2022-12-10T02:23:06;5.13;;;4.43;;
34567;SDS011;20806;50.746;7.116;2022-12-10T02:25:36;5.15;;;4.00;;
34567;SDS011;20806;50.746;7.116;2022-12-10T02:28:25;4.68;;;3.78;;
34567;SDS011;20806;50.746;7.116;2022-12-10T02:30:50;4.85;;;4.10;;
34567;SDS011;20806;50.746;7.116;2022-12-10T02:33:16;5.27;;;4.10;;
34567;SDS011;20806;50.746;7.116;2022-12-10T02:35:43;4.10;;;3.70;;
34567;SDS011;20806;50.746;7.116;2022-12-10T02:38:16;4.47;;;3.90;;
34567;SDS011;20806;50.746;7.116;2022-12-10T02:40:44;4.83;;;4.10;;
34567;SDS011;20806;50.746;7.116;2022-12-10T02:43:12;4.45;;;3.90;;
34567;SDS011;20806;50.746;7.116;2022-12-10T02:45:38;4.72;;;4.07;;
34567;SDS011;20806;50.746;7.116;2022-12-10T02:48:04;4.70;;;4.05;;
34567;SDS011;20806;50.746;7.116;2022-12-10T02:50:31;5.13;;;3.92;;
34567;SDS011;20806;50.746;7.116;2022-12-10T02:52:57;5.05;;;3.90;;
34567;SDS011;20806;50.746;7.116;2022-12-10T02:55:23;4.30;;;3.80;;
34567;SDS011;20806;50.746;7.116;2022-12-10T03:00:31;5.05;;;4.10;;
34567;SDS011;20806;50.746;7.116;2022-12-10T03:08:13;5.22;;;4.15;;
34567;SDS011;20806;50.746;7.116;2022-12-10T03:13:10;4.78;;;3.83;;
34567;SDS011;20806;50.746;7.116;2022-12-10T03:15:38;4.38;;;3.95;;
34567;SDS011;20806;50.746;7.116;2022-12-10T03:18:05;4.40;;;3.72;;
34567;SDS011;20806;50.746;7.116;2022-12-10T03:20:32;4.65;;;3.80;;
34567;SDS011;20806;50.746;7.116;2022-12-10T03:22:58;5.15;;;3.80;;
34567;SDS011;20806;50.746;7.116;2022-12-10T03:25:26;4.20;;;3.63;;
34567;SDS011;20806;50.746;7.116;2022-12-10T03:27:54;4.57;;;3.85;;
34567;SDS011;20806;50.746;7.116;2022-12-10T03:30:20;4.10;;;3.70;;
34567;SDS011;20806;50.746;7.116;2022-12-10T03:32:46;4.10;;;3.70;;
34567;SDS011;20806;50.746;7.116;2022-12-10T03:35:13;4.30;;;3.80;;
34567;SDS011;20806;50.746;7.116;2022-12-10T03:37:40;4.63;;;4.13;;
34567;SDS011;20806;50.746;7.116;2022-12-10T03:40:06;5.10;;;4.00;;
34567;SDS011;20806;50.746;7.116;2022-12-10T03:42:35;4.63;;;4.00;;
34567;SDS011;20806;50.746;7.116;2022-12-10T03:45:01;4.85;;;4.03;;
34567;SDS011;20806;50.746;7.116;2022-12-10T03:47:27;4.43;;;4.00;;
34567;SDS011;20806;50.746;7.116;2022-12-10T03:49:53;4.50;;;3.83;;
34567;SDS011;20806;50.746;7.116;2022-12-10T03:52:19;4.80;;;3.80;;
34567;SDS011;20806;50.746;7.116;2022-12-10T03:54:45;4.40;;;3.83;;
34567;SDS011;20806;50.746;7.116;2022-12-10T03:57:11;4.47;;;3.88;;
34567;SDS011;20806;50.746;7.116;2022-12-10T03:59:37;4.60;;;4.13;;
34567;SDS011;20806;50.746;7.116;2022-12-10T04:02:03;4.73;;;3.67;;
34567;SDS011;20806;50.746;7.116;2022-12-10T04:04:29;4.65;;;3.80;;
34567;SDS011;20806;50.746;7.116;2022-12-10T04:06:55;5.40;;;4.30;;
34567;SDS011;20806;50.746;7.116;2022-12-10T04:09:21;5.78;;;4.25;;
34567;SDS011;20806;50.746;7.116;2022-12-10T04:11:48;6.50;;;4.90;;
34567;SDS011;20806;50.746;7.116;2022-12-10T04:14:14;5.50;;;4.22;;
34567;SDS011;20806;50.746;7.116;2022-12-10T04:16:59;4.37;;;3.97;;
34567;SDS011;20806;50.746;7.116;2022-12-10T04:19:25;6.43;;;4.40;;
34567;SDS011;20806;50.746;7.116;2022-12-10T04:21:51;6.55;;;4.40;;
34567;SDS011;20806;50.746;7.116;2022-12-10T04:24:36;6.00;;;4.65;;
34567;SDS011;20806;50.746;7.116;2022-12-10T04:29:47;5.82;;;4.50;;
34567;SDS011;20806;50.746;7.116;2022-12-10T04:32:13;6.50;;;4.43;;
34567;SDS011;20806;50.746;7.116;2022-12-10T04:34:39;5.27;;;4.17;;
34567;SDS011;20806;50.746;7.116;2022-12-10T04:37:05;4.72;;;3.88;;
34567;SDS011;20806;50.746;7.116;2022-12-10T04:39:32;6.15;;;4.05;;
34567;SDS011;20806;50.746;7.116;2022-12-10T04:41:59;4.72;;;3.92;;
34567;SDS011;20806;50.746;7.116;2022-12-10T04:44:25;4.90;;;3.95;;
34567;SDS011;20806;50.746;7.116;2022-12-10T04:46:51;4.30;;;3.70;;
34567;SDS011;20806;50.746;7.116;2022-12-10T04:49:17;4.15;;;3.67;;
34567;SDS011;20806;50.746;7.116;2022-12-10T04:51:43;5.03;;;3.83;;
34567;SDS011;20806;50.746;7.116;2022-12-10T04:54:09;6.05;;;3.88;;
34567;SDS011;20806;50.746;7.116;2022-12-10T04:56:36;4.93;;;3.93;;
34567;SDS011;20806;50.746;7.116;2022-12-10T04:59:03;5.25;;;4.10;;
34567;SDS011;20806;50.746;7.116;2022-12-10T05:01:29;5.88;;;4.10;;
34567;SDS011;20806;50.746;7.116;2022-12-10T05:03:58;5.03;;;4.10;;
34567;SDS011;20806;50.746;7.116;2022-12-10T05:06:24;5.10;;;3.83;;
34567;SDS011;20806;50.746;7.116;2022-12-10T05:08:50;5.55;;;4.25;;
34567;SDS011;20806;50.746;7.116;2022-12-10T05:11:18;4.87;;;3.80;;
34567;SDS011;20806;50.746;7.116;2022-12-10T05:13:44;5.40;;;3.50;;
34567;SDS011;20806;50.746;7.116;2022-12-10T05:16:11;4.40;;;3.72;;
34567;SDS011;20806;50.746;7.116;2022-12-10T05:18:38;5.90;;;4.20;;
34567;SDS011;20806;50.746;7.116;2022-12-10T05:21:05;4.55;;;4.00;;
34567;SDS011;20806;50.746;7.116;2022-12-10T05:23:31;6.07;;;4.25;;
34567;SDS011;20806;50.746;7.116;2022-12-10T05:26:01;5.55;;;3.80;;
34567;SDS011;20806;50.746;7.116;2022-12-10T05:28:28;5.35;;;3.97;;
34567;SDS011;20806;50.746;7.116;2022-12-10T05:30:55;4.78;;;3.75;;
34567;SDS011;20806;50.746;7.116;2022-12-10T05:33:21;4.78;;;3.67;;
34567;SDS011;20806;50.746;7.116;2022-12-10T05:35:54;4.85;;;3.90;;
34567;SDS011;20806;50.746;7.116;2022-12-10T05:38:20;4.47;;;3.65;;
34567;SDS011;20806;50.746;7.116;2022-12-10T05:40:46;4.97;;;3.58;;
34567;SDS011;20806;50.746;7.116;2022-12-10T05:43:13;4.40;;;4.00;;
34567;SDS011;20806;50.746;7.116;2022-12-10T05:45:38;5.27;;;3.80;;
34567;SDS011;20806;50.746;7.116;2022-12-10T05:48:05;4.07;;;3.60;;
34567;SDS011;20806;50.746;7.116;2022-12-10T05:50:31;5.00;;;4.00;;
34567;SDS011;20806;50.746;7.116;2022-12-10T05:52:57;4.68;;;4.00;;
34567;SDS011;20806;50.746;7.116;2022-12-10T05:55:23;4.53;;;3.50;;
34567;SDS011;20806;50.746;7.116;2022-12-10T05:57:51;4.45;;;3.80;;
34567;SDS011;20806;50.746;7.116;2022-12-10T06:00:18;4.45;;;3.70;;
34567;SDS011;20806;50.746;7.116;2022-12-10T06:02:45;4.17;;;3.43;;
34567;SDS011;20806;50.746;7.116;2022-12-10T06:05:11;4.65;;;3.70;;
34567;SDS011;20806;50.746;7.116;2022-12-10T06:07:37;3.80;;;3.33;;
34567;SDS011;20806;50.746;7.116;2022-12-10T06:10:03;4.93;;;3.72;;
34567;SDS011;20806;50.746;7.116;2022-12-10T06:12:29;3.97;;;3.58;;
34567;SDS011;20806;50.746;7.116;2022-12-10T06:14:55;4.68;;;3.80;;
34567;SDS011;20806;50.746;7.116;2022-12-10T06:17:21;5.07;;;3.53;;
34567;SDS011;20806;50.746;7.116;2022-12-10T06:19:47;5.00;;;3.55;;
34567;SDS011;20806;50.746;7.116;2022-12-10T06:22:13;4.20;;;3.63;;
34567;SDS011;20806;50.746;7.116;2022-12-10T06:24:39;4.75;;;3.95;;
34567;SDS011;20806;50.746;7.116;2022-12-10T06:27:05;4.03;;;3.63;;
34567;SDS011;20806;50.746;7.116;2022-12-10T06:29:31;3.60;;;3.30;;
34567;SDS011;20806;50.746;7.116;2022-12-10T06:31:57;3.40;;;3.10;;
34567;SDS011;20806;50.746;7.116;2022-12-10T06:34:23;4.13;;;3.67;;
34567;SDS011;20806;50.746;7.116;2022-12-10T06:36:49;4.13;;;3.72;;
34567;SDS011;20806;50.746;7.116;2022-12-10T06:39:15;3.90;;;3.60;;
34567;SDS011;20806;50.746;7.116;2022-12-10T06:41:41;3.85;;;3.45;;
34567;SDS011;20806;50.746;7.116;2022-12-10T06:44:09;3.75;;;3.30;;
34567;SDS011;20806;50.746;7.116;2022-12-10T06:46:35;3.50;;;3.20;;
34567;SDS011;20806;50.746;7.116;2022-12-10T06:49:01;3.58;;;3.17;;
34567;SDS011;20806;50.746;7.116;2022-12-10T06:51:27;3.72;;;3.42;;
34567;SDS011;20806;50.746;7.116;2022-12-10T06:53:53;4.07;;;3.67;;
34567;SDS011;20806;50.746;7.116;2022-12-10T06:56:20;3.97;;;3.33;;
34567;SDS011;20806;50.746;7.116;2022-12-10T06:58:46;3.90;;;3.50;;
34567;SDS011;20806;50.746;7.116;2022-12-10T07:01:20;3.75;;;3.45;;
34567;SDS011;20806;50.746;7.116;2022-12-10T07:03:50;3.90;;;3.50;;
34567;SDS011;20806;50.746;7.116;2022-12-10T07:06:16;3.80;;;3.40;;
34567;SDS011;20806;50.746;7.116;2022-12-10T07:08:42;3.30;;;3.00;;
34567;SDS011;20806;50.746;7.116;2022-12-10T07:11:10;3.57;;;3.27;;
34567;SDS011;20806;50.746;7.116;2022-12-10T07:13:36;4.15;;;3.75;;
34567;SDS011;20806;50.746;7.116;2022-12-10T07:16:02;3.70;;;3.40;;
34567;SDS011;20806;50.746;7.116;2022-12-10T07:18:28;3.75;;;3.45;;
34567;SDS011;20806;50.746;7.116;2022-12-10T07:20:54;4.10;;;3.70;;
34567;SDS011;20806;50.746;7.116;2022-12-10T07:23:20;3.53;;;3.22;;
34567;SDS011;20806;50.746;7.116;2022-12-10T07:25:46;4.05;;;3.70;;
34567;SDS011;20806;50.746;7.116;2022-12-10T07:28:13;4.30;;;3.90;;
34567;SDS011;20806;50.746;7.116;2022-12-10T07:30:39;4.22;;;3.83;;
34567;SDS011;20806;50.746;7.116;2022-12-10T07:33:05;4.38;;;3.88;;
34567;SDS011;20806;50.746;7.116;2022-12-10T07:35:31;4.40;;;3.90;;
34567;SDS011;20806;50.746;7.116;2022-12-10T07:37:57;3.85;;;3.38;;
34567;SDS011;20806;50.746;7.116;2022-12-10T07:40:23;4.00;;;3.60;;
34567;SDS011;20806;50.746;7.116;2022-12-10T07:42:49;4.87;;;4.10;;
34567;SDS011;20806;50.746;7.116;2022-12-10T07:45:15;4.13;;;3.72;;
34567;SDS011;20806;50.746;7.116;2022-12-10T07:47:41;4.72;;;3.70;;
34567;SDS011;20806;50.746;7.116;2022-12-10T07:50:07;4.15;;;3.75;;
34567;SDS011;20806;50.746;7.116;2022-12-10T07:52:33;4.30;;;3.88;;
34567;SDS011;20806;50.746;7.116;2022-12-10T07:54:59;5.10;;;4.07;;
34567;SDS011;20806;50.746;7.116;2022-12-10T07:57:25;4.00;;;3.60;;
34567;SDS011;20806;50.746;7.116;2022-12-10T07:59:51;5.03;;;4.00;;
34567;SDS011;20806;50.746;7.116;2022-12-10T08:02:17;4.70;;;3.90;;
34567;SDS011;20806;50.746;7.116;2022-12-10T08:04:43;4.70;;;4.20;;
34567;SDS011;20806;50.746;7.116;2022-12-10T08:07:09;4.78;;;4.10;;
34567;SDS011;20806;50.746;7.116;2022-12-10T08:09:36;5.47;;;4.43;;
34567;SDS011;20806;50.746;7.116;2022-12-10T08:12:02;4.55;;;4.15;;
34567;SDS011;20806;50.746;7.116;2022-12-10T08:14:28;4.57;;;4.15;;
34567;SDS011;20806;50.746;7.116;2022-12-10T08:16:54;4.23;;;3.83;;
34567;SDS011;20806;50.746;7.116;2022-12-10T08:19:20;4.05;;;3.65;;
34567;SDS011;20806;50.746;7.116;2022-12-10T08:21:46;4.43;;;3.80;;
34567;SDS011;20806;50.746;7.116;2022-12-10T08:24:12;4.32;;;3.90;;
34567;SDS011;20806;50.746;7.116;2022-12-10T08:26:38;4.20;;;3.80;;
34567;SDS011;20806;50.746;7.116;2022-12-10T08:29:04;4.50;;;4.07;;
34567;SDS011;20806;50.746;7.116;2022-12-10T08:31:30;4.20;;;3.67;;
34567;SDS011;20806;50.746;7.116;2022-12-10T08:33:56;4.00;;;3.60;;
34567;SDS011;20806;50.746;7.116;2022-12-10T08:36:22;4.30;;;3.90;;
34567;SDS011;20806;50.746;7.116;2022-12-10T08:38:48;4.10;;;3.70;;
34567;SDS011;20806;50.746;7.116;2022-12-10T08:41:19;4.10;;;3.70;;
34567;SDS011;20806;50.746;7.116;2022-12-10T08:43:46;4.63;;;3.85;;
34567;SDS011;20806;50.746;7.116;2022-12-10T08:46:12;4.03;;;3.50;;
34567;SDS011;20806;50.746;7.116;2022-12-10T08:48:39;4.40;;;4.00;;
34567;SDS011;20806;50.746;7.116;2022-12-10T08:51:06;4.25;;;3.85;;
34567;SDS011;20806;50.746;7.116;2022-12-10T08:53:32;4.20;;;3.80;;
34567;SDS011;20806;50.746;7.116;2022-12-10T08:55:59;3.70;;;3.40;;
34567;SDS011;20806;50.746;7.116;2022-12-10T08:58:25;4.68;;;3.65;;
34567;SDS011;20806;50.746;7.116;2022-12-10T09:00:51;4.38;;;3.88;;
34567;SDS011;20806;50.746;7.116;2022-12-10T09:03:17;3.97;;;3.58;;
34567;SDS011;20806;50.746;7.116;2022-12-10T09:05:43;4.30;;;3.90;;
34567;SDS011;20806;50.746;7.116;2022-12-10T09:08:09;4.10;;;3.70;;
34567;SDS011;20806;50.746;7.116;2022-12-10T09:10:35;5.10;;;4.18;;
34567;SDS011;20806;50.746;7.116;2022-12-10T09:13:02;4.53;;;4.07;;
34567;SDS011;20806;50.746;7.116;2022-12-10T09:15:28;4.82;;;4.20;;
34567;SDS011;20806;50.746;7.116;2022-12-10T09:17:54;4.50;;;4.10;;
34567;SDS011;20806;50.746;7.116;2022-12-10T09:20:20;4.43;;;4.03;;
34567;SDS011;20806;50.746;7.116;2022-12-10T09:22:46;4.27;;;3.87;;
34567;SDS011;20806;50.746;7.116;2022-12-10T09:25:12;4.53;;;4.13;;
34567;SDS011;20806;50.746;7.116;2022-12-10T09:27:40;4.80;;;4.28;;
34567;SDS011;20806;50.746;7.116;2022-12-10T09:30:06;4.95;;;4.22;;
34567;SDS011;20806;50.746;7.116;2022-12-10T09:32:33;4.47;;;4.07;;
34567;SDS011;20806;50.746;7.116;2022-12-10T09:34:59;4.55;;;3.92;;
34567;SDS011;20806;50.746;7.116;2022-12-10T09:37:25;4.25;;;3.85;;
34567;SDS011;20806;50.746;7.116;2022-12-10T09:39:51;4.50;;;4.10;;
34567;SDS011;20806;50.746;7.116;2022-12-10T09:47:35;4.05;;;3.65;;
34567;SDS011;20806;50.746;7.116;2022-12-10T09:52:31;3.85;;;3.55;;
34567;SDS011;20806;50.746;7.116;2022-12-10T09:55:04;3.73;;;3.43;;
34567;SDS011;20806;50.746;7.116;2022-12-10T09:57:32;3.50;;;3.20;;
34567;SDS011;20806;50.746;7.116;2022-12-10T10:00:00;3.83;;;3.53;;
34567;SDS011;20806;50.746;7.116;2022-12-10T10:02:30;3.83;;;3.45;;
34567;SDS011;20806;50.746;7.116;2022-12-10T10:05:43;3.70;;;3.35;;
34567;SDS011;20806;50.746;7.116;2022-12-10T10:07:44;4.22;;;3.60;;
34567;SDS011;20806;50.746;7.116;2022-12-10T10:15:34;4.13;;;3.73;;
34567;SDS011;20806;50.746;7.116;2022-12-10T10:18:18;4.60;;;4.10;;
34567;SDS011;20806;50.746;7.116;2022-12-10T10:20:46;4.20;;;3.70;;
34567;SDS011;20806;50.746;7.116;2022-12-10T10:23:14;3.78;;;3.47;;
34567;SDS011;20806;50.746;7.116;2022-12-10T10:25:40;4.00;;;3.70;;
34567;SDS011;20806;50.746;7.116;2022-12-10T10:28:09;4.30;;;3.90;;
34567;SDS011;20806;50.746;7.116;2022-12-10T10:30:37;3.60;;;3.30;;
34567;SDS011;20806;50.746;7.116;2022-12-10T10:33:08;3.83;;;3.45;;
34567;SDS011;20806;50.746;7.116;2022-12-10T10:35:41;3.60;;;3.30;;
34567;SDS011;20806;50.746;7.116;2022-12-10T10:38:13;3.55;;;3.25;;
34567;SDS011;20806;50.746;7.116;2022-12-10T10:40:45;4.40;;;3.85;;
34567;SDS011;20806;50.746;7.116;2022-12-10T10:43:58;5.40;;;4.40;;
34567;SDS011;20806;50.746;7.116;2022-12-10T10:46:01;4.47;;;4.07;;
34567;SDS011;20806;50.746;7.116;2022-12-10T10:48:29;5.20;;;4.55;;
34567;SDS011;20806;50.746;7.116;2022-12-10T10:51:04;4.95;;;4.45;;
34567;SDS011;20806;50.746;7.116;2022-12-10T10:56:38;4.43;;;4.03;;
34567;SDS011;20806;50.746;7.116;2022-12-10T10:59:07;4.20;;;3.80;;
34567;SDS011;20806;50.746;7.116;2022-12-10T11:01:52;4.05;;;3.65;;
34567;SDS011;20806;50.746;7.116;2022-12-10T11:04:21;3.95;;;3.55;;
34567;SDS011;20806;50.746;7.116;2022-12-10T11:06:49;4.13;;;3.72;;
34567;SDS011;20806;50.746;7.116;2022-12-10T11:09:17;4.25;;;3.50;;
34567;SDS011;20806;50.746;7.116;2022-12-10T11:11:45;4.30;;;3.90;;
34567;SDS011;20806;50.746;7.116;2022-12-10T11:14:24;4.30;;;3.70;;
34567;SDS011;20806;50.746;7.116;2022-12-10T11:16:51;4.60;;;3.90;;
34567;SDS011;20806;50.746;7.116;2022-12-10T11:19:23;3.73;;;3.43;;
34567;SDS011;20806;50.746;7.116;2022-12-10T11:21:51;3.95;;;3.50;;
34567;SDS011;20806;50.746;7.116;2022-12-10T11:24:18;4.28;;;3.75;;
34567;SDS011;20806;50.746;7.116;2022-12-10T11:26:59;3.75;;;3.35;;
34567;SDS011;20806;50.746;7.116;2022-12-10T11:29:41;3.90;;;3.50;;
34567;SDS011;20806;50.746;7.116;2022-12-10T11:39:56;3.80;;;3.50;;
34567;SDS011;20806;50.746;7.116;2022-12-10T11:42:35;4.50;;;4.10;;
34567;SDS011;20806;50.746;7.116;2022-12-10T12:00:26;4.07;;;3.67;;
34567;SDS011;20806;50.746;7.116;2022-12-10T12:05:45;4.43;;;3.90;;
34567;SDS011;20806;50.746;7.116;2022-12-10T12:08:17;4.00;;;3.60;;
34567;SDS011;20806;50.746;7.116;2022-12-10T12:13:15;4.03;;;3.55;;
34567;SDS011;20806;50.746;7.116;2022-12-10T12:18:20;4.68;;;4.05;;
34567;SDS011;20806;50.746;7.116;2022-12-10T12:20:54;5.00;;;4.22;;
34567;SDS011;20806;50.746;7.116;2022-12-10T12:26:03;4.40;;;4.00;;
34567;SDS011;20806;50.746;7.116;2022-12-10T12:28:42;4.22;;;3.83;;
34567;SDS011;20806;50.746;7.116;2022-12-10T12:31:13;4.30;;;3.90;;
34567;SDS011;20806;50.746;7.116;2022-12-10T12:33:50;5.43;;;4.50;;
34567;SDS011;20806;50.746;7.116;2022-12-10T12:36:18;4.88;;;4.13;;
34567;SDS011;20806;50.746;7.116;2022-12-10T12:39:32;4.43;;;4.03;;
34567;SDS011;20806;50.746;7.116;2022-12-10T12:46:58;4.32;;;3.92;;
34567;SDS011;20806;50.746;7.116;2022-12-10T12:49:32;4.60;;;4.20;;
34567;SDS011;20806;50.746;7.116;2022-12-10T12:52:00;5.03;;;4.00;;
34567;SDS011;20806;50.746;7.116;2022-12-10T12:54:28;4.80;;;4.22;;
34567;SDS011;20806;50.746;7.116;2022-12-10T13:04:40;4.45;;;3.92;;
34567;SDS011;20806;50.746;7.116;2022-12-10T13:09:45;4.43;;;3.80;;
34567;SDS011;20806;50.746;7.116;2022-12-10T13:19:52;4.40;;;4.00;;
34567;SDS011;20806;50.746;7.116;2022-12-10T13:25:10;5.47;;;4.50;;
34567;SDS011;20806;50.746;7.116;2022-12-10T13:27:37;5.57;;;4.55;;
34567;SDS011;20806;50.746;7.116;2022-12-10T13:42:56;4.85;;;4.13;;
34567;SDS011;20806;50.746;7.116;2022-12-10T13:45:41;4.78;;;4.10;;
34567;SDS011;20806;50.746;7.116;2022-12-10T13:50:47;4.95;;;4.40;;
34567;SDS011;20806;50.746;7.116;2022-12-10T14:04:30;5.03;;;4.03;;
34567;SDS011;20806;50.746;7.116;2022-12-10T14:06:46;4.70;;;3.95;;
34567;SDS011;20806;50.746;7.116;2022-12-10T14:09:32;4.63;;;3.95;;
34567;SDS011;20806;50.746;7.116;2022-12-10T14:12:07;4.95;;;4.32;;
34567;SDS011;20806;50.746;7.116;2022-12-10T14:14:40;4.87;;;4.17;;
34567;SDS011;20806;50.746;7.116;2022-12-10T14:17:15;5.10;;;4.25;;
34567;SDS011;20806;50.746;7.116;2022-12-10T14:19:43;5.07;;;4.00;;
34567;SDS011;20806;50.746;7.116;2022-12-10T14:22:13;4.72;;;4.10;;
34567;SDS011;20806;50.746;7.116;2022-12-10T14:24:41;5.07;;;4.20;;
34567;SDS011;20806;50.746;7.116;2022-12-10T14:29:44;6.20;;;4.32;;
34567;SDS011;20806;50.746;7.116;2022-12-10T14:32:12;4.53;;;3.85;;
34567;SDS011;20806;50.746;7.116;2022-12-10T14:34:39;5.00;;;4.15;;
34567;SDS011;20806;50.746;7.116;2022-12-10T14:37:05;5.68;;;3.90;;
34567;SDS011;20806;50.746;7.116;2022-12-10T14:39:32;5.15;;;3.95;;
34567;SDS011;20806;50.746;7.116;2022-12-10T14:42:00;4.65;;;3.85;;
34567;SDS011;20806;50.746;7.116;2022-12-10T14:44:27;5.50;;;3.72;;
34567;SDS011;20806;50.746;7.116;2022-12-10T14:47:02;4.43;;;3.70;;
34567;SDS011;20806;50.746;7.116;2022-12-10T14:49:29;4.15;;;3.72;;
34567;SDS011;20806;50.746;7.116;2022-12-10T14:51:59;5.18;;;3.90;;
34567;SDS011;20806;50.746;7.116;2022-12-10T14:54:30;4.78;;;3.97;;
34567;SDS011;20806;50.746;7.116;2022-12-10T14:56:56;6.43;;;4.38;;
34567;SDS011;20806;50.746;7.116;2022-12-10T14:59:25;5.00;;;3.83;;
34567;SDS011;20806;50.746;7.116;2022-12-10T15:01:55;4.60;;;4.07;;
34567;SDS011;20806;50.746;7.116;2022-12-10T15:04:23;5.40;;;4.22;;
34567;SDS011;20806;50.746;7.116;2022-12-10T15:06:50;5.97;;;4.53;;
34567;SDS011;20806;50.746;7.116;2022-12-10T15:09:20;6.82;;;4.90;;
34567;SDS011;20806;50.746;7.116;2022-12-10T15:11:54;7.00;;;5.00;;
34567;SDS011;20806;50.746;7.116;2022-12-10T15:14:20;6.63;;;4.60;;
34567;SDS011;20806;50.746;7.116;2022-12-10T15:16:47;5.75;;;4.60;;
34567;SDS011;20806;50.746;7.116;2022-12-10T15:24:28;5.68;;;4.60;;
34567;SDS011;20806;50.746;7.116;2022-12-10T15:26:58;5.20;;;4.43;;
34567;SDS011;20806;50.746;7.116;2022-12-10T15:31:54;5.68;;;4.40;;
34567;SDS011;20806;50.746;7.116;2022-12-10T15:34:20;4.37;;;3.83;;
34567;SDS011;20806;50.746;7.116;2022-12-10T15:36:50;5.50;;;3.97;;
34567;SDS011;20806;50.746;7.116;2022-12-10T15:39:21;4.72;;;4.05;;
34567;SDS011;20806;50.746;7.116;2022-12-10T15:41:52;5.07;;;4.45;;
34567;SDS011;20806;50.746;7.116;2022-12-10T15:44:26;4.50;;;4.10;;
34567;SDS011;20806;50.746;7.116;2022-12-10T15:49:29;4.97;;;4.00;;
34567;SDS011;20806;50.746;7.116;2022-12-10T15:51:55;5.18;;;3.95;;
34567;SDS011;20806;50.746;7.116;2022-12-10T15:54:23;4.30;;;3.90;;
34567;SDS011;20806;50.746;7.116;2022-12-10T15:56:50;5.50;;;3.85;;
34567;SDS011;20806;50.746;7.116;2022-12-10T15:59:16;4.63;;;3.95;;
34567;SDS011;20806;50.746;7.116;2022-12-10T16:01:42;4.63;;;4.05;;
34567;SDS011;20806;50.746;7.116;2022-12-10T16:04:09;4.45;;;3.85;;
34567;SDS011;20806;50.746;7.116;2022-12-10T16:06:35;4.45;;;4.03;;
34567;SDS011;20806;50.746;7.116;2022-12-10T16:09:01;4.88;;;4.25;;
34567;SDS011;20806;50.746;7.116;2022-12-10T16:11:27;5.47;;;4.47;;
34567;SDS011;20806;50.746;7.116;2022-12-10T16:13:53;4.93;;;4.43;;
34567;SDS011;20806;50.746;7.116;2022-12-10T16:16:22;4.85;;;4.20;;
34567;SDS011;20806;50.746;7.116;2022-12-10T16:18:48;4.22;;;3.72;;
34567;SDS011;20806;50.746;7.116;2022-12-10T16:21:14;4.40;;;4.00;;
34567;SDS011;20806;50.746;7.116;2022-12-10T16:23:40;4.78;;;3.90;;
34567;SDS011;20806;50.746;7.116;2022-12-10T16:26:13;4.53;;;4.03;;
34567;SDS011;20806;50.746;7.116;2022-12-10T16:28:40;4.68;;;4.10;;
34567;SDS011;20806;50.746;7.116;2022-12-10T16:31:07;5.25;;;3.97;;
34567;SDS011;20806;50.746;7.116;2022-12-10T16:33:34;4.13;;;3.70;;
34567;SDS011;20806;50.746;7.116;2022-12-10T16:35:59;4.47;;;3.85;;
34567;SDS011;20806;50.746;7.116;2022-12-10T16:38:27;4.22;;;3.70;;
34567;SDS011;20806;50.746;7.116;2022-12-10T16:40:53;4.40;;;4.00;;
34567;SDS011;20806;50.746;7.116;2022-12-10T16:43:26;4.10;;;3.70;;
34567;SDS011;20806;50.746;7.116;2022-12-10T16:45:53;4.15;;;3.67;;
34567;SDS011;20806;50.746;7.116;2022-12-10T16:48:19;4.53;;;3.78;;
34567;SDS011;20806;50.746;7.116;2022-12-10T16:51:03;4.25;;;3.53;;
34567;SDS011;20806;50.746;7.116;2022-12-10T16:53:31;4.38;;;3.70;;
34567;SDS011;20806;50.746;7.116;2022-12-10T16:56:00;4.07;;;3.65;;
34567;SDS011;20806;50.746;7.116;2022-12-10T16:58:26;4.30;;;3.90;;
34567;SDS011;20806;50.746;7.116;2022-12-10T17:00:53;4.38;;;3.97;;
34567;SDS011;20806;50.746;7.116;2022-12-10T17:03:20;4.88;;;3.80;;
34567;SDS011;20806;50.746;7.116;2022-12-10T17:05:47;4.43;;;4.00;;
34567;SDS011;20806;50.746;7.116;2022-12-10T17:08:13;4.82;;;4.15;;
34567;SDS011;20806;50.746;7.116;2022-12-10T17:10:39;4.95;;;4.13;;